Aviation Digital Data Service (ADDS)

Output produced by METARs form (0711 UTC 24 March 2019)
found at http://www.aviationweather.gov/metar/data/
 
MSLP 240650Z 08003KT 050V120 CAVOK 23/20 Q1013 A2993 NOSIG
TAF MSLP 240325Z 2406/2506 04006KT 9999 FEW027 SCT050 TX35/2418Z TN22/2412Z 
     FM241200 9999 BKN060 
     FM241800 20008KT 9999 FEW040 SCT060 
     FM250000 VRB03KT 9999 SCT070
       
MSSS 240550Z 35007KT CAVOK 22/12 Q1017 A3005
TAF MSSS 240325Z 2406/2506 34006KT 9999 FEW030 SCT040 TX32/2420Z TN20/2412Z 
     FM241200 9999 BKN047 
     FM042000 18008KT 9999 SCT033 
     FM050200 34005KT 9999 SCT043